Terminal Aerodrome Forecast
Issued by NWS

Home | Current Version | Previous Version | Text Only | Print | Product List | Glossary On
Versions: 1 2 3 4 5 6 7 8 9 10 11 12 13 14 15
000
FTUS42 KTBW 041131
TAFLAL
TAF
KLAL 041131Z 0412/0512 VRB03KT P6SM SCT250
     FM041500 30006KT P6SM VCSH SCT025 SCT250
     FM041800 32006KT P6SM VCTS SCT030CB BKN250
     FM050000 34004KT P6SM SCT035 SCT250
     FM050400 VRB02KT P6SM SCT040 SCT250=

USA.gov is the U.S. government's official web portal to all federal, state and local government web resources and services.